Time;durP1;ratioP1;P1;durP2;ratioP2;P2;SDS_P1;SDS_P2;PMS_P1;PMS_P2;Temp;Humidity;BMP_temperature;BMP_pressure;BME280_temperature;BME280_humidity;BME280_pressure;Samples;Min_cycle;Max_cycle;Signal;HPM_P1;HPM_P2
2024/02/06 00:03:46;;;;;;;8.60;3.42;;;8.60;99.90;;;;;;10048704;28;20038;-76
2024/02/06 00:08:42;;;;;;;6.63;2.42;;;8.60;99.90;;;;;;10051894;28;20090;-76
2024/02/06 00:13:34;;;;;;;;;;;8.60;99.90;;;;;;10056960;28;20101;-72
2024/02/06 00:18:24;;;;;;;4.35;2.85;;;8.50;99.90;;;;;;10053203;28;19970;-74
2024/02/06 00:23:15;;;;;;;7.32;3.35;;;8.50;99.90;;;;;;10060249;28;20087;-75
2024/02/06 00:28:13;;;;;;;5.60;2.83;;;8.40;99.90;;;;;;10077064;28;20037;-73
2024/02/06 00:33:04;;;;;;;7.85;3.47;;;8.40;99.90;;;;;;10060430;28;20030;-72
2024/02/06 00:37:57;;;;;;;6.18;3.03;;;8.40;99.90;;;;;;10059043;28;20109;-74
2024/02/06 00:42:48;;;;;;;3.65;2.70;;;8.40;99.90;;;;;;10074467;28;20034;-75
2024/02/06 00:47:39;;;;;;;6.05;2.70;;;8.40;99.90;;;;;;10065180;28;20041;-76
2024/02/06 00:52:29;;;;;;;9.07;3.80;;;8.40;99.90;;;;;;10069013;22;20147;-77
2024/02/06 00:57:21;;;;;;;6.10;2.95;;;8.30;99.90;;;;;;10068705;28;20032;-76
2024/02/06 01:02:15;;;;;;;5.85;3.30;;;8.20;99.90;;;;;;10066525;28;20064;-76
2024/02/06 01:07:06;;;;;;;4.72;3.22;;;8.20;99.90;;;;;;10060467;28;20041;-76
2024/02/06 01:12:20;;;;;;;3.78;2.90;;;8.10;99.90;;;;;;10067044;28;20048;-78
2024/02/06 01:17:10;;;;;;;4.15;2.85;;;8.20;99.90;;;;;;10029743;28;20041;-79
2024/02/06 01:22:05;;;;;;;6.75;3.58;;;8.10;99.90;;;;;;10070883;28;20022;-78
2024/02/06 01:26:56;;;;;;;8.05;3.75;;;8.10;99.90;;;;;;10084809;28;20045;-79
2024/02/06 01:31:47;;;;;;;6.25;3.65;;;8.10;99.90;;;;;;10069726;28;20167;-80
2024/02/06 01:36:40;;;;;;;9.25;3.97;;;8.10;99.90;;;;;;10069129;28;20025;-76
2024/02/06 01:41:30;;;;;;;8.32;4.05;;;8.10;99.90;;;;;;10061491;28;20522;-78
2024/02/06 01:46:21;;;;;;;8.57;3.30;;;8.00;99.90;;;;;;10059553;28;20045;-77
2024/02/06 01:51:14;;;;;;;6.97;3.05;;;8.00;99.90;;;;;;10064144;28;20500;-77
2024/02/06 01:56:05;;;;;;;6.57;3.45;;;8.00;99.90;;;;;;10065804;28;20030;-77
2024/02/06 02:00:56;;;;;;;6.82;3.35;;;7.90;99.90;;;;;;10054879;28;20091;-75
2024/02/06 02:05:47;;;;;;;8.40;3.95;;;7.90;99.90;;;;;;10058321;28;20129;-73
2024/02/06 02:10:39;;;;;;;8.10;4.22;;;7.80;99.90;;;;;;10060295;28;20120;-75
2024/02/06 02:15:30;;;;;;;5.65;3.00;;;7.80;99.90;;;;;;10085466;28;20087;-74
2024/02/06 02:20:21;;;;;;;5.82;3.60;;;7.70;99.90;;;;;;10056338;28;20550;-77
2024/02/06 02:25:11;;;;;;;6.13;3.42;;;7.70;99.90;;;;;;10061430;28;20048;-73
2024/02/06 02:30:03;;;;;;;7.00;3.63;;;7.70;99.90;;;;;;10056279;28;20507;-74
2024/02/06 02:34:53;;;;;;;3.83;2.92;;;7.60;99.90;;;;;;10068676;28;20030;-75
2024/02/06 02:39:44;;;;;;;7.57;3.75;;;7.60;99.90;;;;;;10072680;28;20080;-76
2024/02/06 02:44:35;;;;;;;5.18;3.22;;;7.60;99.90;;;;;;10057116;28;20033;-79
2024/02/06 02:49:25;;;;;;;5.07;2.70;;;7.60;99.90;;;;;;10057611;28;20033;-79
2024/02/06 02:54:16;;;;;;;5.50;2.67;;;7.60;99.90;;;;;;10062162;28;20073;-79
2024/02/06 02:59:07;;;;;;;4.50;2.85;;;7.60;99.90;;;;;;10072764;28;20021;-78
2024/02/06 03:03:57;;;;;;;7.22;2.78;;;7.60;99.90;;;;;;10056011;28;20037;-78
2024/02/06 03:08:48;;;;;;;7.20;3.22;;;7.50;99.90;;;;;;10055365;28;20014;-78
2024/02/06 03:13:42;;;;;;;5.38;3.13;;;7.50;99.90;;;;;;10062233;28;20391;-77
2024/02/06 03:18:32;;;;;;;5.90;2.85;;;7.60;99.90;;;;;;10056591;28;20097;-80
2024/02/06 03:23:24;;;;;;;5.32;2.90;;;7.70;99.90;;;;;;10056299;28;20123;-78
2024/02/06 03:28:15;;;;;;;8.20;3.03;;;7.70;99.90;;;;;;10062205;28;20562;-78
2024/02/06 03:33:06;;;;;;;5.88;3.75;;;7.60;99.90;;;;;;10059596;28;20160;-77
2024/02/06 03:37:56;;;;;;;6.95;3.92;;;7.60;99.90;;;;;;10056315;28;20022;-80
2024/02/06 03:42:47;;;;;;;5.03;3.08;;;7.60;99.90;;;;;;10055043;28;20363;-74
2024/02/06 03:47:38;;;;;;;6.10;3.33;;;7.60;99.90;;;;;;10058725;28;20122;-77
2024/02/06 03:52:28;;;;;;;4.13;2.50;;;7.70;99.90;;;;;;10055185;28;20128;-77
2024/02/06 03:57:19;;;;;;;7.43;3.03;;;7.60;99.90;;;;;;10060891;28;20125;-78
2024/02/06 04:02:10;;;;;;;5.35;3.45;;;7.50;99.90;;;;;;10069063;28;20112;-77
2024/02/06 04:07:00;;;;;;;4.32;3.00;;;7.50;99.90;;;;;;10067768;28;20045;-77
2024/02/06 04:11:51;;;;;;;3.83;2.60;;;7.60;99.90;;;;;;10064182;28;20013;-75
2024/02/06 04:16:42;;;;;;;9.50;2.85;;;7.60;99.90;;;;;;10054151;22;20441;-78
2024/02/06 04:21:33;;;;;;;5.00;3.05;;;7.60;99.90;;;;;;10028858;28;20045;-76
2024/02/06 04:26:29;;;;;;;5.55;3.58;;;7.60;99.90;;;;;;10025916;28;20038;-76
2024/02/06 04:31:22;;;;;;;5.72;2.15;;;7.60;99.90;;;;;;10047066;28;20427;-75
2024/02/06 04:36:13;;;;;;;3.78;2.22;;;7.60;99.90;;;;;;10047101;28;20530;-74
2024/02/06 04:41:04;;;;;;;4.18;2.90;;;7.60;99.90;;;;;;10039071;28;20033;-75
2024/02/06 04:45:55;;;;;;;5.00;2.30;;;7.70;99.90;;;;;;10040929;28;20121;-75
2024/02/06 04:50:45;;;;;;;6.03;2.83;;;7.80;99.90;;;;;;10023122;28;20568;-76
2024/02/06 04:55:36;;;;;;;3.75;2.28;;;7.80;99.90;;;;;;10056050;28;20132;-75
2024/02/06 05:00:27;;;;;;;5.07;2.92;;;7.80;99.90;;;;;;10042694;28;20108;-75
2024/02/06 05:05:18;;;;;;;4.22;2.53;;;7.70;99.90;;;;;;10042530;28;20124;-76
2024/02/06 05:10:10;;;;;;;3.25;1.98;;;7.70;99.90;;;;;;10031719;28;20034;-74
2024/02/06 05:15:01;;;;;;;5.63;3.15;;;7.70;99.90;;;;;;10032914;28;20049;-75
2024/02/06 05:20:04;;;;;;;5.57;2.15;;;7.60;99.90;;;;;;10035012;28;20026;-75
2024/02/06 05:24:57;;;;;;;6.47;3.00;;;7.60;99.90;;;;;;10038774;28;20030;-73
2024/02/06 05:29:48;;;;;;;5.60;2.17;;;7.70;99.90;;;;;;10047761;28;20087;-72
2024/02/06 05:34:39;;;;;;;3.65;2.28;;;7.70;99.90;;;;;;10038763;28;20083;-74
2024/02/06 05:39:36;;;;;;;4.22;2.50;;;7.80;99.90;;;;;;10035860;28;20112;-77
2024/02/06 05:44:26;;;;;;;4.05;2.47;;;7.80;99.90;;;;;;10036138;28;20447;-76
2024/02/06 05:49:17;;;;;;;4.47;1.65;;;7.80;99.90;;;;;;10063694;28;20026;-76
2024/02/06 05:54:08;;;;;;;4.78;2.78;;;7.80;99.90;;;;;;10061737;28;20033;-76
2024/02/06 05:58:58;;;;;;;6.40;3.03;;;7.80;99.90;;;;;;10041581;28;20030;-74
2024/02/06 06:03:50;;;;;;;5.00;3.10;;;7.80;99.90;;;;;;10024287;28;20037;-75
2024/02/06 06:08:43;;;;;;;8.93;3.33;;;7.80;99.90;;;;;;10029048;28;20032;-74
2024/02/06 06:13:33;;;;;;;4.25;2.50;;;7.80;99.90;;;;;;10023548;28;20042;-77
2024/02/06 06:18:25;;;;;;;5.28;3.10;;;7.80;99.90;;;;;;10037662;28;20029;-75
2024/02/06 06:23:15;;;;;;;5.22;2.70;;;7.70;99.90;;;;;;10029220;28;20057;-77
2024/02/06 06:28:07;;;;;;;6.20;3.53;;;7.80;99.90;;;;;;10020174;28;20476;-78
2024/02/06 06:32:58;;;;;;;5.25;3.05;;;7.80;99.90;;;;;;10025257;28;20029;-78
2024/02/06 06:37:49;;;;;;;4.63;2.55;;;7.80;99.90;;;;;;10022104;28;20659;-77
2024/02/06 06:42:40;;;;;;;5.80;2.65;;;7.80;99.90;;;;;;10020012;28;20034;-75
2024/02/06 06:47:30;;;;;;;4.57;2.97;;;7.80;99.90;;;;;;10044974;28;20698;-75
2024/02/06 06:52:21;;;;;;;7.93;2.38;;;7.90;99.90;;;;;;10025545;28;20508;-75
2024/02/06 06:57:12;;;;;;;5.82;3.05;;;7.80;99.90;;;;;;10018767;28;20095;-74
2024/02/06 07:02:03;;;;;;;5.75;3.05;;;7.90;99.90;;;;;;10018900;28;20029;-74
2024/02/06 07:06:54;;;;;;;10.10;3.65;;;7.90;99.90;;;;;;10023592;28;20037;-74
2024/02/06 07:11:48;;;;;;;6.57;3.03;;;7.90;99.90;;;;;;10009779;28;20025;-76
2024/02/06 07:16:41;;;;;;;8.52;2.65;;;7.80;99.90;;;;;;10015658;28;20054;-74
2024/02/06 07:21:32;;;;;;;5.95;3.50;;;7.80;99.90;;;;;;10023230;28;20061;-73
2024/02/06 07:26:23;;;;;;;6.20;2.72;;;7.80;99.90;;;;;;10022521;28;20375;-73
2024/02/06 07:31:14;;;;;;;7.40;3.70;;;7.80;99.90;;;;;;10028961;28;20116;-75
2024/02/06 07:36:08;;;;;;;7.30;3.85;;;7.80;99.90;;;;;;10020345;28;20106;-76
2024/02/06 07:40:59;;;;;;;11.98;4.50;;;7.80;99.90;;;;;;10020586;28;20030;-72
2024/02/06 07:45:51;;;;;;;8.05;4.07;;;7.80;99.90;;;;;;10007207;28;20033;-74
2024/02/06 07:50:47;;;;;;;12.68;4.60;;;7.80;99.90;;;;;;10014752;28;20034;-75
2024/02/06 07:55:38;;;;;;;11.00;4.53;;;7.70;99.90;;;;;;10021902;28;20052;-73
2024/02/06 08:00:29;;;;;;;16.45;5.32;;;7.70;99.90;;;;;;10010033;28;20034;-75
2024/02/06 08:05:19;;;;;;;11.23;3.70;;;7.60;99.90;;;;;;10029016;28;20038;-74
2024/02/06 08:10:10;;;;;;;7.55;4.65;;;7.60;99.90;;;;;;10022646;28;20079;-73
2024/02/06 08:15:03;;;;;;;8.18;4.28;;;7.60;99.90;;;;;;10028471;28;20054;-76
2024/02/06 08:19:54;;;;;;;6.30;3.58;;;7.60;99.90;;;;;;10038411;28;20032;-78
2024/02/06 08:24:45;;;;;;;8.48;3.15;;;7.60;99.90;;;;;;10048194;28;20106;-74
2024/02/06 08:29:36;;;;;;;8.63;3.83;;;7.60;99.90;;;;;;10042706;28;20042;-82
2024/02/06 08:34:27;;;;;;;7.70;3.80;;;7.50;99.90;;;;;;10041738;28;20049;-72
2024/02/06 08:39:20;;;;;;;7.57;4.05;;;7.50;99.90;;;;;;10021548;28;20049;-78
2024/02/06 08:44:10;;;;;;;10.52;3.85;;;7.60;99.90;;;;;;10025783;28;20385;-77
2024/02/06 08:49:01;;;;;;;6.28;4.18;;;7.60;99.90;;;;;;10042358;28;20109;-76
2024/02/06 08:53:52;;;;;;;11.63;4.75;;;7.60;99.90;;;;;;10048133;28;20038;-76
2024/02/06 08:58:43;;;;;;;10.82;4.90;;;7.60;99.90;;;;;;10024161;28;20075;-78
2024/02/06 09:03:33;;;;;;;12.25;4.88;;;7.60;99.90;;;;;;10018579;28;20407;-75
2024/02/06 09:08:24;;;;;;;9.88;3.65;;;7.60;99.90;;;;;;10023651;28;20018;-73
2024/02/06 09:13:15;;;;;;;11.40;5.10;;;7.60;99.90;;;;;;10031990;28;20099;-75
2024/02/06 09:18:06;;;;;;;8.65;4.72;;;7.60;99.90;;;;;;10042702;28;20029;-74
2024/02/06 09:22:57;;;;;;;10.63;3.97;;;7.60;99.90;;;;;;10038166;28;20165;-75
2024/02/06 09:27:48;;;;;;;13.30;5.57;;;7.60;99.90;;;;;;10027960;28;20033;-71
2024/02/06 09:32:39;;;;;;;8.27;3.92;;;7.70;99.90;;;;;;10021510;28;20503;-74
2024/02/06 09:37:30;;;;;;;6.30;3.90;;;7.70;99.90;;;;;;10023465;28;20021;-75
2024/02/06 09:42:21;;;;;;;7.85;3.90;;;7.70;99.90;;;;;;10023518;28;20034;-74
2024/02/06 09:47:12;;;;;;;6.80;3.67;;;7.70;99.90;;;;;;10028429;28;20095;-74
2024/02/06 09:52:04;;;;;;;5.70;2.60;;;7.80;99.90;;;;;;10022615;28;20041;-73
2024/02/06 09:56:56;;;;;;;7.22;2.75;;;7.80;99.90;;;;;;10006649;28;20011;-73
2024/02/06 10:01:47;;;;;;;4.50;2.95;;;7.70;99.90;;;;;;10046915;28;20121;-72
2024/02/06 10:06:38;;;;;;;6.00;3.40;;;7.80;99.90;;;;;;10027190;28;20065;-73
2024/02/06 10:11:36;;;;;;;5.68;3.05;;;7.80;99.90;;;;;;10022227;28;20034;-70
2024/02/06 10:16:27;;;;;;;6.57;2.85;;;7.80;99.90;;;;;;10023327;28;20180;-70
2024/02/06 10:21:18;;;;;;;7.32;3.03;;;7.90;99.90;;;;;;10023252;28;20555;-71
2024/02/06 10:26:08;;;;;;;4.40;2.53;;;7.90;99.90;;;;;;10026206;28;20049;-67
2024/02/06 10:31:08;;;;;;;6.03;3.17;;;8.00;99.90;;;;;;10007009;28;20508;-68
2024/02/06 10:36:01;;;;;;;4.28;3.33;;;8.00;99.90;;;;;;10007598;28;20045;-68
2024/02/06 10:40:52;;;;;;;5.82;3.00;;;8.10;99.90;;;;;;10007907;28;20105;-69
2024/02/06 10:45:44;;;;;;;4.32;2.47;;;8.10;99.90;;;;;;9998999;28;20141;-73
2024/02/06 10:50:36;;;;;;;4.30;2.30;;;8.10;99.90;;;;;;10024612;28;20045;-73
2024/02/06 10:55:27;;;;;;;5.22;2.17;;;8.10;99.90;;;;;;10022548;28;20087;-75
2024/02/06 11:00:20;;;;;;;4.43;2.38;;;8.10;99.90;;;;;;10014412;28;20034;-73
2024/02/06 11:05:34;;;;;;;5.65;1.95;;;8.20;99.90;;;;;;10009013;28;20038;-75
2024/02/06 11:10:40;;;;;;;7.07;2.33;;;8.20;99.90;;;;;;10030174;28;20028;-76
2024/02/06 11:15:31;;;;;;;4.35;2.58;;;8.20;99.90;;;;;;10033977;28;20511;-74
2024/02/06 11:20:30;;;;;;;3.80;2.22;;;8.30;99.90;;;;;;10018352;28;20056;-69
2024/02/06 11:25:27;;;;;;;5.43;1.92;;;8.30;99.90;;;;;;10017474;28;20065;-69
2024/02/06 11:30:21;;;;;;;3.25;1.95;;;8.40;99.90;;;;;;10022982;28;20026;-68
2024/02/06 11:35:12;;;;;;;4.55;2.20;;;8.40;99.90;;;;;;10024103;28;20047;-71
2024/02/06 11:40:13;;;;;;;3.20;1.42;;;8.40;99.90;;;;;;10028782;28;20090;-67
2024/02/06 11:45:12;;;;;;;3.70;2.17;;;8.60;99.90;;;;;;10007340;28;20443;-68
2024/02/06 11:50:12;;;;;;;2.17;1.50;;;8.60;99.90;;;;;;10021002;28;20038;-71
2024/02/06 11:55:04;;;;;;;3.10;1.55;;;8.70;99.90;;;;;;10005301;28;20037;-69
2024/02/06 11:59:56;;;;;;;3.50;1.88;;;8.70;99.90;;;;;;10019166;28;20034;-68
2024/02/06 12:04:46;;;;;;;2.40;1.20;;;8.80;99.90;;;;;;10015702;28;20046;-69
2024/02/06 12:09:41;;;;;;;3.53;1.63;;;8.80;99.90;;;;;;10035887;28;20029;-68
2024/02/06 12:14:32;;;;;;;3.00;1.60;;;8.90;99.90;;;;;;10017402;28;20084;-70
2024/02/06 12:19:36;;;;;;;4.10;1.50;;;8.90;99.90;;;;;;10028358;28;20315;-71
2024/02/06 12:24:26;;;;;;;3.45;1.52;;;9.00;99.90;;;;;;10031213;28;20056;-69
2024/02/06 12:29:17;;;;;;;2.47;1.58;;;9.00;99.90;;;;;;10023519;28;20109;-73
2024/02/06 12:34:08;;;;;;;2.05;1.48;;;9.00;99.90;;;;;;10053987;28;20603;-69
2024/02/06 12:38:59;;;;;;;2.22;1.40;;;9.10;99.90;;;;;;10026520;28;20030;-69
2024/02/06 12:43:52;;;;;;;2.80;1.27;;;9.10;99.90;;;;;;10022920;28;20042;-69
2024/02/06 12:48:43;;;;;;;1.95;1.30;;;9.10;99.90;;;;;;10022979;28;20021;-73
2024/02/06 12:53:35;;;;;;;2.63;1.20;;;9.10;99.90;;;;;;10018199;28;20105;-70
2024/02/06 12:58:28;;;;;;;2.00;0.98;;;9.20;99.90;;;;;;10009111;28;20034;-76
2024/02/06 13:03:18;;;;;;;2.15;0.90;;;9.30;99.90;;;;;;10006558;28;20060;-77
2024/02/06 13:08:14;;;;;;;2.78;1.05;;;9.40;99.90;;;;;;10057774;28;20035;-73
2024/02/06 13:13:05;;;;;;;2.05;1.17;;;9.40;99.90;;;;;;10028756;28;20057;-76
2024/02/06 13:18:00;;;;;;;2.05;1.25;;;9.40;99.90;;;;;;10033789;28;20045;-75
2024/02/06 13:22:50;;;;;;;2.45;0.93;;;9.40;99.90;;;;;;10032359;28;20022;-68
2024/02/06 13:27:42;;;;;;;1.00;0.80;;;9.50;99.90;;;;;;10025546;28;20044;-68
2024/02/06 13:32:33;;;;;;;1.35;0.90;;;9.50;99.90;;;;;;10021864;28;20018;-68
2024/02/06 13:37:24;;;;;;;1.60;1.10;;;9.60;99.90;;;;;;10015881;28;20032;-68
2024/02/06 13:42:15;;;;;;;3.67;1.33;;;9.70;99.90;;;;;;10034335;28;20021;-68
2024/02/06 13:47:06;;;;;;;2.00;1.00;;;9.80;99.90;;;;;;10023298;28;20033;-68
2024/02/06 13:51:58;;;;;;;2.70;1.00;;;9.90;99.90;;;;;;10009372;28;20183;-67
2024/02/06 13:56:50;;;;;;;1.38;0.60;;;10.00;99.90;;;;;;10035732;28;20721;-67
2024/02/06 14:01:41;;;;;;;1.77;0.82;;;10.10;99.90;;;;;;10041963;28;20108;-66
2024/02/06 14:06:33;;;;;;;1.92;0.80;;;10.20;99.90;;;;;;10026011;28;20081;-68
2024/02/06 14:11:24;;;;;;;1.80;0.73;;;10.20;99.90;;;;;;10015006;28;20518;-69
2024/02/06 14:16:16;;;;;;;2.60;0.88;;;10.20;99.90;;;;;;10014753;28;20065;-75
2024/02/06 14:21:06;;;;;;;2.28;0.88;;;10.20;99.90;;;;;;10028871;28;20041;-77
2024/02/06 14:25:57;;;;;;;3.42;0.82;;;10.10;99.90;;;;;;10025808;28;20037;-78
2024/02/06 14:30:48;;;;;;;1.08;0.73;;;10.10;99.90;;;;;;10031031;28;20129;-75
2024/02/06 14:35:40;;;;;;;1.15;0.75;;;10.10;99.90;;;;;;10013428;28;20077;-68
2024/02/06 14:40:30;;;;;;;2.22;0.93;;;10.00;99.90;;;;;;10026364;28;20033;-70
2024/02/06 14:45:21;;;;;;;1.95;1.15;;;10.00;99.90;;;;;;10020610;28;20045;-68
2024/02/06 14:50:12;;;;;;;1.80;0.93;;;10.00;99.90;;;;;;10048757;28;20030;-70
2024/02/06 14:55:03;;;;;;;0.52;0.40;;;9.90;99.90;;;;;;10033498;28;20030;-69
2024/02/06 14:59:54;;;;;;;1.75;1.20;;;9.90;99.90;;;;;;10017589;28;20574;-71
2024/02/06 15:04:44;;;;;;;1.83;0.90;;;10.00;99.90;;;;;;10037147;28;20049;-68
2024/02/06 15:09:36;;;;;;;1.02;0.60;;;10.00;99.90;;;;;;10040975;28;20089;-69
2024/02/06 15:14:27;;;;;;;0.80;0.80;;;9.90;99.90;;;;;;10031773;28;20057;-65
2024/02/06 15:19:18;;;;;;;3.95;1.20;;;9.90;99.90;;;;;;10027670;28;20034;-65
2024/02/06 15:24:08;;;;;;;3.20;0.80;;;10.00;99.90;;;;;;10046393;28;20404;-68
2024/02/06 15:28:59;;;;;;;2.63;1.15;;;10.00;99.90;;;;;;10019595;28;20032;-67
2024/02/06 15:33:51;;;;;;;2.15;0.88;;;10.00;99.90;;;;;;9995102;28;20026;-68
2024/02/06 15:38:41;;;;;;;1.88;0.90;;;10.00;99.90;;;;;;9986444;28;20038;-69
2024/02/06 15:43:32;;;;;;;2.13;1.13;;;10.00;99.90;;;;;;10034342;28;20048;-69
2024/02/06 15:48:23;;;;;;;2.88;0.93;;;10.00;99.90;;;;;;10031951;28;20034;-71
2024/02/06 15:53:13;;;;;;;1.52;0.82;;;10.00;99.90;;;;;;10021592;28;20071;-68
2024/02/06 15:58:04;;;;;;;2.40;1.15;;;10.00;99.90;;;;;;10020735;28;20055;-69
2024/02/06 16:02:57;;;;;;;1.55;1.10;;;10.00;99.90;;;;;;10001732;28;20452;-71
2024/02/06 16:07:48;;;;;;;2.08;1.13;;;10.00;99.90;;;;;;10011418;28;20040;-69
2024/02/06 16:12:38;;;;;;;4.38;1.60;;;10.10;99.90;;;;;;10035633;28;20208;-71
2024/02/06 16:17:30;;;;;;;1.70;1.33;;;10.00;99.90;;;;;;10011226;28;20666;-71
2024/02/06 16:22:21;;;;;;;3.58;1.02;;;10.00;99.90;;;;;;10019536;28;20057;-71
2024/02/06 16:27:11;;;;;;;2.55;1.23;;;10.00;99.90;;;;;;10021479;28;20049;-71
2024/02/06 16:32:03;;;;;;;2.72;1.52;;;10.00;99.90;;;;;;10016613;28;20081;-70
2024/02/06 16:36:56;;;;;;;3.97;1.80;;;9.90;99.90;;;;;;10025947;28;20117;-84
2024/02/06 16:41:47;;;;;;;1.98;1.10;;;10.00;99.90;;;;;;10045057;28;20487;-81
2024/02/06 16:46:39;;;;;;;2.55;1.70;;;10.00;99.90;;;;;;10039590;28;20104;-76
2024/02/06 16:51:29;;;;;;;2.20;1.30;;;9.90;99.90;;;;;;10021814;28;20049;-76
2024/02/06 16:56:20;;;;;;;2.83;1.20;;;9.90;99.90;;;;;;10020919;28;20033;-74
2024/02/06 17:01:11;;;;;;;2.15;1.50;;;9.80;99.90;;;;;;10033564;28;20101;-82
2024/02/06 17:06:02;;;;;;;2.92;0.95;;;9.80;99.90;;;;;;10025780;28;20211;-79
2024/02/06 17:10:53;;;;;;;2.65;1.48;;;9.70;99.90;;;;;;10022320;28;20030;-71
2024/02/06 17:15:44;;;;;;;5.47;1.80;;;9.70;99.90;;;;;;10031238;28;20050;-68
2024/02/06 17:20:34;;;;;;;2.78;1.27;;;9.70;99.90;;;;;;10026076;28;20033;-67
2024/02/06 17:25:25;;;;;;;2.10;1.45;;;9.80;99.90;;;;;;10019752;28;20038;-68
2024/02/06 17:30:16;;;;;;;4.20;1.83;;;9.80;99.90;;;;;;10028177;28;20104;-68
2024/02/06 17:35:07;;;;;;;6.72;4.00;;;9.80;99.90;;;;;;10032415;28;20093;-66
2024/02/06 17:39:57;;;;;;;5.03;2.28;;;9.70;99.90;;;;;;10038420;28;20025;-68
2024/02/06 17:44:48;;;;;;;3.13;1.77;;;9.70;99.90;;;;;;10030650;28;20034;-70
2024/02/06 17:49:39;;;;;;;2.70;1.67;;;9.70;99.90;;;;;;10001459;28;20084;-67
2024/02/06 17:54:29;;;;;;;4.40;1.77;;;9.80;99.90;;;;;;10024756;28;20030;-68
2024/02/06 17:59:20;;;;;;;2.65;1.95;;;9.80;99.90;;;;;;10024592;28;20034;-68
2024/02/06 18:04:11;;;;;;;4.55;1.75;;;9.80;99.90;;;;;;10009929;28;20044;-68
2024/02/06 18:09:01;;;;;;;3.00;1.42;;;9.80;99.90;;;;;;10040734;28;20166;-69
2024/02/06 18:13:52;;;;;;;3.85;2.00;;;9.80;99.90;;;;;;10020114;28;20046;-69
2024/02/06 18:18:42;;;;;;;3.10;1.67;;;9.80;99.90;;;;;;10023572;28;20060;-67
2024/02/06 18:23:33;;;;;;;4.57;2.20;;;9.80;99.90;;;;;;10017388;28;20037;-66
2024/02/06 18:28:24;;;;;;;2.17;1.60;;;9.80;99.90;;;;;;10010115;28;20033;-68
2024/02/06 18:33:14;;;;;;;3.53;1.98;;;9.70;99.90;;;;;;10008400;28;20076;-68
2024/02/06 18:38:05;;;;;;;1.83;1.13;;;9.70;99.90;;;;;;10009668;28;20105;-69
2024/02/06 18:42:55;;;;;;;3.38;1.70;;;9.70;99.90;;;;;;9999946;28;20041;-66
2024/02/06 18:47:47;;;;;;;3.55;1.45;;;9.70;99.90;;;;;;10011501;28;20044;-68
2024/02/06 18:52:38;;;;;;;3.55;1.70;;;9.80;99.90;;;;;;9994353;28;20061;-66
2024/02/06 18:57:29;;;;;;;2.40;1.52;;;9.70;99.90;;;;;;9997836;28;20028;-66
2024/02/06 19:02:21;;;;;;;4.38;1.70;;;9.60;99.90;;;;;;10009445;28;20042;-70
2024/02/06 19:07:12;;;;;;;3.25;1.30;;;9.70;99.90;;;;;;10029653;28;20156;-67
2024/02/06 19:12:03;;;;;;;3.42;1.85;;;9.70;99.90;;;;;;10010719;28;20500;-70
2024/02/06 19:16:54;;;;;;;3.10;1.80;;;9.70;99.90;;;;;;9998451;28;20038;-68
2024/02/06 19:21:45;;;;;;;2.85;1.45;;;9.60;99.90;;;;;;9999836;28;20026;-67
2024/02/06 19:26:36;;;;;;;3.65;1.98;;;9.70;99.90;;;;;;10019803;28;20622;-67
2024/02/06 19:31:27;;;;;;;3.38;1.48;;;9.60;99.90;;;;;;10020294;28;20029;-68
2024/02/06 19:36:18;;;;;;;2.00;1.10;;;9.60;99.90;;;;;;10033178;28;20030;-69
2024/02/06 19:41:09;;;;;;;3.38;1.75;;;9.60;99.90;;;;;;10027766;28;20676;-66
2024/02/06 19:46:00;;;;;;;3.72;1.90;;;9.60;99.90;;;;;;10032720;28;20458;-67
2024/02/06 19:50:52;;;;;;;3.08;1.95;;;9.60;99.90;;;;;;10054062;28;20036;-67
2024/02/06 19:55:42;;;;;;;2.90;1.65;;;9.60;99.90;;;;;;10043341;28;20457;-72
2024/02/06 20:00:34;;;;;;;2.50;1.20;;;9.60;99.90;;;;;;10037513;28;20022;-69
2024/02/06 20:05:25;;;;;;;4.35;2.03;;;9.60;99.90;;;;;;10024114;28;20076;-69
2024/02/06 20:10:16;;;;;;;3.38;1.42;;;9.70;99.90;;;;;;10015255;28;20084;-68
2024/02/06 20:15:07;;;;;;;3.13;1.38;;;9.60;99.90;;;;;;10041410;28;20049;-70
2024/02/06 20:19:58;;;;;;;2.88;1.92;;;9.70;99.90;;;;;;10024638;28;20026;-68
2024/02/06 20:24:49;;;;;;;5.25;2.03;;;9.70;99.90;;;;;;10017131;28;20038;-67
2024/02/06 20:29:40;;;;;;;2.83;2.00;;;9.70;99.90;;;;;;10030385;28;20030;-70
2024/02/06 20:34:30;;;;;;;3.65;1.70;;;9.60;99.90;;;;;;10027337;28;20033;-72
2024/02/06 20:39:21;;;;;;;3.20;1.52;;;9.60;99.90;;;;;;10024897;28;20030;-68
2024/02/06 20:44:12;;;;;;;2.45;1.38;;;9.50;99.90;;;;;;10024418;28;20068;-68
2024/02/06 20:49:04;;;;;;;4.53;2.25;;;9.50;99.90;;;;;;10022219;28;20053;-72
2024/02/06 20:53:55;;;;;;;3.50;1.45;;;9.50;99.90;;;;;;10008581;28;20527;-68
2024/02/06 20:58:46;;;;;;;5.28;2.25;;;9.60;99.90;;;;;;10025482;28;20026;-69
2024/02/06 21:03:36;;;;;;;2.55;1.90;;;9.60;99.90;;;;;;10034247;28;20030;-67
2024/02/06 21:08:27;;;;;;;3.85;1.67;;;9.60;99.90;;;;;;10030819;28;20041;-73
2024/02/06 21:13:19;;;;;;;2.92;2.63;;;9.60;99.90;;;;;;10038062;28;20037;-67
2024/02/06 21:18:09;;;;;;;2.65;1.42;;;9.60;99.90;;;;;;10031288;28;20036;-66
2024/02/06 21:23:00;;;;;;;2.38;1.52;;;9.50;99.90;;;;;;10017934;28;20032;-68
2024/02/06 21:27:51;;;;;;;3.50;1.48;;;9.60;99.90;;;;;;10011071;28;20030;-67
2024/02/06 21:32:41;;;;;;;4.55;2.38;;;9.60;99.90;;;;;;10034922;28;20033;-67
2024/02/06 21:37:32;;;;;;;2.22;1.20;;;9.60;99.90;;;;;;10049904;28;20038;-69
2024/02/06 21:42:24;;;;;;;2.22;1.38;;;9.60;99.90;;;;;;10030419;28;20034;-66
2024/02/06 21:47:14;;;;;;;2.47;1.27;;;9.60;99.90;;;;;;10029621;28;20068;-67
2024/02/06 21:52:05;;;;;;;1.75;1.25;;;9.60;99.90;;;;;;10025255;28;20027;-67
2024/02/06 21:56:56;;;;;;;1.90;1.25;;;9.60;99.90;;;;;;10019829;28;20073;-66
2024/02/06 22:01:50;;;;;;;2.20;1.38;;;9.60;99.90;;;;;;10034466;28;20049;-65
2024/02/06 22:06:40;;;;;;;4.18;2.63;;;9.60;99.90;;;;;;10035150;28;20112;-66
2024/02/06 22:11:31;;;;;;;2.75;1.90;;;9.70;99.90;;;;;;10051601;28;20049;-67
2024/02/06 22:16:21;;;;;;;2.25;1.38;;;9.60;99.90;;;;;;10035366;28;20053;-68
2024/02/06 22:21:12;;;;;;;4.57;1.23;;;9.60;99.90;;;;;;10033146;28;20034;-66
2024/02/06 22:26:03;;;;;;;2.35;1.23;;;9.50;99.90;;;;;;10036766;28;20065;-66
2024/02/06 22:30:54;;;;;;;2.38;1.02;;;9.60;99.90;;;;;;10023135;28;20145;-67
2024/02/06 22:35:44;;;;;;;4.60;1.60;;;9.60;99.90;;;;;;10035346;28;20106;-67
2024/02/06 22:40:35;;;;;;;3.13;1.20;;;9.60;99.90;;;;;;10042867;28;20036;-65
2024/02/06 22:45:25;;;;;;;4.82;1.70;;;9.50;99.90;;;;;;10031991;28;20655;-67
2024/02/06 22:50:19;;;;;;;2.45;1.35;;;9.50;99.90;;;;;;10034837;28;20025;-73
2024/02/06 22:55:10;;;;;;;2.63;1.17;;;9.60;99.90;;;;;;10017936;28;20026;-68
2024/02/06 23:00:08;;;;;;;2.38;1.55;;;9.60;99.90;;;;;;10021135;28;20026;-69
2024/02/06 23:04:59;;;;;;;3.17;1.50;;;9.50;99.90;;;;;;9994906;28;20046;-67
2024/02/06 23:09:50;;;;;;;3.22;1.40;;;9.60;99.90;;;;;;10045689;28;20021;-68
2024/02/06 23:14:41;;;;;;;2.38;1.20;;;9.60;99.90;;;;;;10018511;28;20092;-68
2024/02/06 23:19:32;;;;;;;2.53;1.05;;;9.60;99.90;;;;;;10011393;28;20022;-67
2024/02/06 23:24:22;;;;;;;2.40;1.35;;;9.60;99.90;;;;;;10002334;28;20089;-68
2024/02/06 23:29:13;;;;;;;1.50;0.98;;;9.60;99.90;;;;;;9995107;28;20031;-67
2024/02/06 23:34:04;;;;;;;8.00;1.30;;;9.70;99.90;;;;;;10037780;28;20594;-67
2024/02/06 23:38:55;;;;;;;2.20;1.23;;;9.70;99.90;;;;;;10035266;28;20026;-72
2024/02/06 23:43:46;;;;;;;2.63;1.80;;;9.60;99.90;;;;;;10022424;28;20073;-68
2024/02/06 23:48:37;;;;;;;4.25;1.50;;;9.60;99.90;;;;;;10029932;28;20038;-69
2024/02/06 23:53:33;;;;;;;2.25;1.45;;;9.60;99.90;;;;;;10016606;28;20040;-66
2024/02/06 23:58:24;;;;;;;;;;;9.60;99.90;;;;;;10029532;28;20093;-67
